Time;durP1;ratioP1;P1;durP2;ratioP2;P2;SDS_P1;SDS_P2;PMS_P1;PMS_P2;Temp;Humidity;BMP_temperature;BMP_pressure;BME280_temperature;BME280_humidity;BME280_pressure;Samples;Min_cycle;Max_cycle;Signal;HPM_P1;HPM_P2
2023/05/28 00:02:26;;;;;;;10.67;4.13;;;;;;;13.91;66.20;98734.94;4953936;28;20246;-63
2023/05/28 00:04:53;;;;;;;8.77;3.80;;;;;;;13.96;65.90;98739.69;4958361;28;20253;-63
2023/05/28 00:07:21;;;;;;;7.83;3.50;;;;;;;14.02;66.73;98733.75;4959340;28;20757;-63
2023/05/28 00:09:48;;;;;;;7.73;4.03;;;;;;;13.92;66.15;98733.94;4954767;28;20735;-63
2023/05/28 00:12:15;;;;;;;10.20;4.27;;;;;;;13.91;67.11;98732.31;4963750;28;20334;-63
2023/05/28 00:14:42;;;;;;;7.03;3.50;;;;;;;13.79;66.39;98728.41;4958671;28;20227;-63
2023/05/28 00:17:08;;;;;;;10.23;4.30;;;;;;;13.73;67.03;98730.75;4960894;28;20284;-63
2023/05/28 00:19:40;;;;;;;7.47;3.93;;;;;;;13.70;66.83;98725.00;4961540;28;20240;-63
2023/05/28 00:22:07;;;;;;;10.40;4.00;;;;;;;13.71;67.70;98726.66;4949789;28;20249;-63
2023/05/28 00:24:38;;;;;;;8.50;3.93;;;;;;;13.67;67.19;98727.97;4953923;28;20570;-63
2023/05/28 00:27:05;;;;;;;8.93;3.67;;;;;;;13.60;67.28;98719.97;4964841;28;20244;-63
2023/05/28 00:29:39;;;;;;;7.07;3.53;;;;;;;13.50;68.24;98720.13;4957349;28;20273;-63
2023/05/28 00:32:06;;;;;;;13.47;4.63;;;;;;;13.49;69.10;98722.94;4960884;28;20322;-63
2023/05/28 00:34:40;;;;;;;10.93;3.77;;;;;;;13.39;69.58;98728.31;4944212;28;20650;-63
2023/05/28 00:37:06;;;;;;;9.40;4.03;;;;;;;13.39;70.56;98718.66;4960021;28;20240;-63
2023/05/28 00:39:38;;;;;;;7.03;3.63;;;;;;;13.38;70.45;98717.03;4977793;28;20833;-63
2023/05/28 00:42:10;;;;;;;9.13;3.87;;;;;;;13.31;69.61;98716.06;4955568;28;20247;-63
2023/05/28 00:44:39;;;;;;;8.83;4.10;;;;;;;13.26;69.44;98715.75;4953634;28;20287;-63
2023/05/28 00:47:06;;;;;;;8.43;4.10;;;;;;;13.19;69.11;98712.13;4963471;28;20761;-63
2023/05/28 00:49:41;;;;;;;11.37;4.17;;;;;;;13.16;68.90;98707.22;4950716;28;20235;-63
2023/05/28 00:52:09;;;;;;;8.40;4.00;;;;;;;13.13;69.75;98713.63;4958751;28;20259;-63
2023/05/28 00:54:39;;;;;;;7.97;4.07;;;;;;;13.10;70.31;98706.91;4974458;28;20582;-63
2023/05/28 00:57:06;;;;;;;7.60;3.87;;;;;;;13.08;70.11;98706.25;4956180;28;20237;-63
2023/05/28 00:59:39;;;;;;;8.77;3.90;;;;;;;13.07;70.66;98709.06;4955732;28;20244;-63
2023/05/28 01:02:06;;;;;;;8.13;3.73;;;;;;;13.05;70.27;98716.25;4963585;28;20880;-63
2023/05/28 01:04:42;;;;;;;10.87;4.17;;;;;;;13.14;73.02;98715.28;4961389;28;20237;-63
2023/05/28 01:07:10;;;;;;;8.40;3.77;;;;;;;13.14;69.81;98715.28;4964333;28;20226;-63
2023/05/28 01:09:39;;;;;;;8.37;4.10;;;;;;;13.25;72.65;98716.72;4949424;28;20327;-63
2023/05/28 01:12:07;;;;;;;8.23;4.13;;;;;;;13.17;72.04;98714.94;4945070;28;20241;-63
2023/05/28 01:14:39;;;;;;;8.07;4.13;;;;;;;13.14;71.75;98715.28;4940410;28;20275;-63
2023/05/28 01:17:06;;;;;;;9.67;3.57;;;;;;;13.14;71.64;98716.06;4952277;28;20312;-63
2023/05/28 01:19:39;;;;;;;6.60;3.80;;;;;;;13.06;71.77;98713.47;4958769;28;20264;-63
2023/05/28 01:22:07;;;;;;;8.57;3.70;;;;;;;12.96;71.66;98705.78;4950003;28;20226;-63
2023/05/28 01:24:40;;;;;;;7.77;3.97;;;;;;;12.94;73.79;98705.13;4944131;28;20246;-63
2023/05/28 01:27:07;;;;;;;8.07;3.93;;;;;;;12.82;73.79;98706.44;4963608;28;20568;-63
2023/05/28 01:29:39;;;;;;;10.47;4.10;;;;;;;12.76;72.83;98700.03;4947886;28;20231;-63
2023/05/28 01:32:06;;;;;;;8.90;3.93;;;;;;;12.72;73.17;98698.72;4954836;28;20247;-63
2023/05/28 01:34:39;;;;;;;13.03;4.03;;;;;;;12.68;73.90;98700.03;4942253;28;20263;-63
2023/05/28 01:37:10;;;;;;;9.17;3.87;;;;;;;12.61;74.36;98701.69;4949060;28;20232;-63
2023/05/28 01:39:43;;;;;;;10.30;4.13;;;;;;;12.63;74.93;98697.09;4956956;28;20239;-63
2023/05/28 01:42:11;;;;;;;8.03;3.93;;;;;;;12.58;74.85;98692.31;4962707;28;20239;-63
2023/05/28 01:44:40;;;;;;;8.50;3.50;;;;;;;12.60;73.75;98686.94;4980691;28;20776;-63
2023/05/28 01:47:07;;;;;;;12.13;3.90;;;;;;;12.61;75.10;98696.44;4957489;28;20254;-63
2023/05/28 01:49:39;;;;;;;7.30;3.97;;;;;;;12.61;75.35;98678.09;4970879;28;20236;-63
2023/05/28 01:52:07;;;;;;;7.93;4.20;;;;;;;12.55;76.68;98685.63;4960893;28;20240;-63
2023/05/28 01:54:40;;;;;;;13.63;4.03;;;;;;;12.68;77.80;98687.75;4964783;28;20230;-63
2023/05/28 01:57:07;;;;;;;12.50;4.23;;;;;;;12.63;77.55;98686.63;4966142;28;20230;-63
2023/05/28 01:59:58;;;;;;;12.20;4.33;;;;;;;12.62;77.33;98682.38;4965559;28;20243;-63
2023/05/28 02:02:26;;;;;;;9.17;3.93;;;;;;;12.57;76.58;98688.06;4959239;28;20237;-63
2023/05/28 02:04:53;;;;;;;9.47;3.83;;;;;;;12.49;76.63;98685.44;4946534;28;20656;-63
2023/05/28 02:07:22;;;;;;;10.97;4.43;;;;;;;12.53;77.30;98684.97;4949994;28;20235;-63
2023/05/28 02:09:51;;;;;;;9.33;4.00;;;;;;;12.49;76.75;98681.03;4953057;28;20643;-63
2023/05/28 02:12:17;;;;;;;9.73;4.33;;;;;;;12.52;76.46;98680.72;4958660;28;20714;-63
2023/05/28 02:14:45;;;;;;;11.80;4.33;;;;;;;12.49;78.13;98681.03;4955074;28;20240;-63
2023/05/28 02:17:12;;;;;;;9.63;4.30;;;;;;;12.47;77.36;98676.94;4947803;28;20678;-63
2023/05/28 02:19:39;;;;;;;10.47;4.20;;;;;;;12.49;77.21;98678.41;4958209;28;20232;-63
2023/05/28 02:22:11;;;;;;;9.90;4.20;;;;;;;12.44;76.37;98678.09;4950120;28;20234;-63
2023/05/28 02:24:39;;;;;;;8.20;3.63;;;;;;;12.46;77.33;98681.34;4977822;28;20224;-63
2023/05/28 02:27:07;;;;;;;10.50;4.30;;;;;;;12.40;77.76;98676.78;4957240;28;20235;-63
2023/05/28 02:29:39;;;;;;;11.70;4.80;;;;;;;12.32;79.04;98685.41;4961091;28;20224;-63
2023/05/28 02:32:06;;;;;;;14.23;3.70;;;;;;;12.29;79.83;98687.53;4961690;28;20760;-63
2023/05/28 02:34:39;;;;;;;7.83;3.93;;;;;;;12.17;78.98;98690.47;4948943;28;20360;-63
2023/05/28 02:37:06;;;;;;;7.73;4.47;;;;;;;12.16;79.91;98691.44;4946643;28;20234;-63
2023/05/28 02:39:57;;;;;;;7.33;3.77;;;;;;;12.03;80.40;98677.97;4956019;28;20236;-63
2023/05/28 02:42:25;;;;;;;8.30;4.47;;;;;;;11.99;81.34;98680.09;4947628;28;20242;-63
2023/05/28 02:44:51;;;;;;;9.37;3.87;;;;;;;11.88;81.65;98673.31;4945885;28;20263;-63
2023/05/28 02:47:21;;;;;;;12.20;3.93;;;;;;;11.89;82.58;98674.16;4946498;28;20640;-63
2023/05/28 02:49:48;;;;;;;13.60;4.13;;;;;;;11.89;83.48;98676.78;4952801;28;20232;-63
2023/05/28 02:52:15;;;;;;;8.30;3.90;;;;;;;11.78;82.09;98676.06;4958015;28;20241;-63
2023/05/28 02:54:47;;;;;;;10.83;4.03;;;;;;;11.75;80.67;98681.63;4960395;28;20643;-63
2023/05/28 02:57:13;;;;;;;7.43;3.57;;;;;;;11.74;81.54;98684.38;4961831;28;20734;-63
2023/05/28 02:59:41;;;;;;;11.40;3.83;;;;;;;11.78;80.87;98680.47;4960996;28;20237;-63
2023/05/28 03:02:08;;;;;;;8.60;4.03;;;;;;;11.77;79.38;98687.50;4961148;28;20316;-63
2023/05/28 03:04:39;;;;;;;7.20;3.87;;;;;;;11.72;79.96;98689.78;4979077;28;20615;-63
2023/05/28 03:07:07;;;;;;;10.80;4.53;;;;;;;11.72;79.67;98688.94;4951474;28;20604;-63
2023/05/28 03:09:39;;;;;;;8.70;4.03;;;;;;;11.69;79.75;98697.09;4954124;28;20659;-63
2023/05/28 03:12:06;;;;;;;6.20;4.03;;;;;;;11.66;81.97;98696.44;4966047;28;20623;-63
2023/05/28 03:14:38;;;;;;;10.90;4.80;;;;;;;11.64;82.06;98690.56;4954040;28;20312;-63
2023/05/28 03:17:06;;;;;;;8.00;3.83;;;;;;;11.58;83.10;98695.59;4963588;28;20241;-63
2023/05/28 03:19:39;;;;;;;9.07;3.97;;;;;;;11.57;84.04;98700.00;4962449;28;20316;-63
2023/05/28 03:22:06;;;;;;;11.77;4.10;;;;;;;11.54;83.44;98696.88;4959132;28;20237;-63
2023/05/28 03:24:42;;;;;;;12.40;4.60;;;;;;;11.46;84.36;98690.63;4970481;28;20241;-63
2023/05/28 03:27:12;;;;;;;9.77;4.53;;;;;;;11.42;85.00;98693.72;4963001;28;20227;-63
2023/05/28 03:29:39;;;;;;;10.47;4.60;;;;;;;11.39;85.58;98696.63;4954186;28;20238;-63
2023/05/28 03:32:19;;;;;;;10.43;4.30;;;;;;;11.35;84.93;98690.88;5177245;23;20236;-63
2023/05/28 03:34:46;;;;;;;10.00;4.43;;;;;;;11.29;85.10;98691.50;4977838;28;20245;-63
2023/05/28 03:37:14;;;;;;;10.73;4.40;;;;;;;11.28;85.79;98687.25;4973174;28;20766;-63
2023/05/28 03:39:44;;;;;;;9.60;3.80;;;;;;;11.26;84.40;98690.03;4975166;28;20309;-63
2023/05/28 03:42:10;;;;;;;10.20;4.60;;;;;;;11.31;84.44;98694.78;4974331;28;20697;-63
2023/05/28 03:44:39;;;;;;;9.93;4.27;;;;;;;11.28;84.92;98690.69;4981513;28;20237;-63
2023/05/28 03:47:06;;;;;;;10.40;4.47;;;;;;;11.37;83.72;98689.78;4971249;28;20228;-63
2023/05/28 03:49:40;;;;;;;9.10;4.10;;;;;;;11.39;83.94;98694.03;4964706;28;20245;-63
2023/05/28 03:52:07;;;;;;;9.67;4.07;;;;;;;11.43;82.34;98696.16;4979845;28;20242;-63
2023/05/28 03:54:48;;;;;;;7.40;3.93;;;;;;;11.48;82.69;98695.72;4981409;28;20308;-63
2023/05/28 03:57:15;;;;;;;13.37;4.87;;;;;;;11.47;83.55;98697.50;4969858;28;20318;-63
2023/05/28 03:59:42;;;;;;;8.80;4.03;;;;;;;11.48;84.55;98695.72;4986071;28;20265;-63
2023/05/28 04:02:09;;;;;;;10.47;3.87;;;;;;;11.46;84.67;98695.84;4974562;28;20231;-63
2023/05/28 04:04:40;;;;;;;9.40;4.57;;;;;;;11.49;85.95;98695.53;4976813;28;20255;-63
2023/05/28 04:07:07;;;;;;;7.27;4.30;;;;;;;11.51;85.05;98701.44;4973547;28;20242;-63
2023/05/28 04:09:40;;;;;;;8.37;4.20;;;;;;;11.52;85.28;98697.84;4962455;28;20233;-63
2023/05/28 04:12:08;;;;;;;7.17;4.40;;;;;;;11.51;86.09;98700.63;4976874;28;20239;-63
2023/05/28 04:14:40;;;;;;;12.03;5.03;;;;;;;11.52;87.28;98697.84;4981636;28;20230;-63
2023/05/28 04:17:07;;;;;;;9.10;4.00;;;;;;;11.54;86.18;98705.56;4978069;28;20723;-63
2023/05/28 04:19:39;;;;;;;8.33;3.90;;;;;;;11.59;87.55;98698.06;4981371;28;20226;-63
2023/05/28 04:22:07;;;;;;;8.03;4.07;;;;;;;11.60;87.19;98699.69;4976826;28;20245;-63
2023/05/28 04:24:38;;;;;;;7.73;4.13;;;;;;;11.62;86.73;98696.91;4957118;28;20237;-63
2023/05/28 04:27:06;;;;;;;9.40;3.70;;;;;;;11.69;85.59;98703.16;4969716;28;20738;-63
2023/05/28 04:29:57;;;;;;;12.53;4.23;;;;;;;11.77;85.10;98697.97;4967390;28;20317;-63
2023/05/28 04:32:24;;;;;;;12.40;4.20;;;;;;;11.83;85.01;98704.34;4971582;28;20294;-63
2023/05/28 04:34:53;;;;;;;10.07;4.23;;;;;;;11.89;85.21;98708.97;4980182;28;20248;-63
2023/05/28 04:37:21;;;;;;;10.30;3.87;;;;;;;11.96;86.27;98717.03;4976182;28;20656;-63
2023/05/28 04:39:48;;;;;;;10.57;4.23;;;;;;;11.99;87.13;98716.72;4978406;28;20249;-63
2023/05/28 04:42:16;;;;;;;8.00;3.80;;;;;;;12.01;86.81;98720.00;4969913;28;20263;-63
2023/05/28 04:44:43;;;;;;;9.97;4.20;;;;;;;12.05;85.95;98725.72;4980673;28;20227;-63
2023/05/28 04:47:11;;;;;;;10.87;4.93;;;;;;;12.08;86.07;98723.63;4976922;28;20697;-63
2023/05/28 04:49:40;;;;;;;8.50;4.40;;;;;;;12.10;86.21;98726.91;4978925;28;20228;-63
2023/05/28 04:52:07;;;;;;;9.97;4.30;;;;;;;12.11;86.33;98730.34;4981856;28;20238;-63
2023/05/28 04:54:40;;;;;;;9.57;4.30;;;;;;;12.14;86.14;98724.78;4963688;28;20235;-63
2023/05/28 04:57:07;;;;;;;9.23;4.40;;;;;;;12.11;86.91;98722.50;4968765;28;20310;-63
2023/05/28 04:59:39;;;;;;;7.27;4.10;;;;;;;12.13;87.33;98725.78;4960807;28;20234;-63
2023/05/28 05:02:06;;;;;;;9.60;4.70;;;;;;;12.13;86.92;98723.16;4972559;28;20231;-63
2023/05/28 05:04:39;;;;;;;9.73;4.47;;;;;;;12.17;86.78;98719.25;4970745;28;20235;-63
2023/05/28 05:07:05;;;;;;;11.97;4.80;;;;;;;12.16;87.84;98722.03;4982156;28;20234;-63
2023/05/28 05:09:36;;;;;;;9.73;4.60;;;;;;;12.18;89.11;98720.06;4980866;28;20951;-63
2023/05/28 05:12:05;;;;;;;8.20;4.40;;;;;;;12.18;89.21;98717.47;4969101;28;20238;-63
2023/05/28 05:14:36;;;;;;;8.20;3.83;;;;;;;12.22;89.40;98716.97;4969852;28;20270;-63
2023/05/28 05:17:06;;;;;;;11.03;4.30;;;;;;;12.27;89.60;98716.47;4912072;28;20700;-63
2023/05/28 05:19:39;;;;;;;9.80;4.37;;;;;;;12.34;89.71;98720.09;4964218;28;20277;-63
2023/05/28 05:22:06;;;;;;;11.27;4.40;;;;;;;12.45;89.80;98719.00;4966911;28;20229;-63
2023/05/28 05:24:40;;;;;;;11.53;5.37;;;;;;;12.40;91.14;98723.88;4974161;28;20234;-63
2023/05/28 05:27:08;;;;;;;14.13;5.57;;;;;;;12.45;90.84;98726.00;4989902;28;20601;-63
2023/05/28 05:29:39;;;;;;;16.17;6.03;;;;;;;12.50;89.62;98731.59;4963039;28;20235;-63
2023/05/28 05:32:07;;;;;;;9.33;5.37;;;;;;;12.58;89.29;98733.41;4962865;28;20243;-63
2023/05/28 05:34:39;;;;;;;12.43;5.30;;;;;;;12.64;87.82;98730.16;4962319;28;20306;-63
2023/05/28 05:37:24;;;;;;;11.33;6.13;;;;;;;12.72;88.06;98734.56;4972747;28;20244;-63
2023/05/28 05:40:10;;;;;;;11.63;5.73;;;;;;;12.78;87.71;98737.34;4970883;28;20816;-63
2023/05/28 05:42:57;;;;;;;10.70;5.93;;;;;;;12.88;87.00;98736.38;4973427;28;20250;-63
2023/05/28 05:45:25;;;;;;;14.57;6.23;;;;;;;12.97;86.91;98738.03;4971160;28;20235;-63
2023/05/28 05:47:54;;;;;;;13.57;6.13;;;;;;;13.09;85.39;98736.72;4973147;28;20232;-63
2023/05/28 05:50:22;;;;;;;12.80;5.50;;;;;;;13.27;85.01;98747.00;4970663;28;20272;-63
2023/05/28 05:52:49;;;;;;;12.07;5.17;;;;;;;13.39;86.19;98739.66;4975078;28;20233;-63
2023/05/28 05:55:16;;;;;;;12.67;5.17;;;;;;;13.57;85.13;98741.28;4982033;28;20318;-63
2023/05/28 05:57:43;;;;;;;8.27;4.93;;;;;;;13.77;83.91;98748.78;4962303;28;20703;-63
2023/05/28 06:00:14;;;;;;;13.73;4.77;;;;;;;13.92;83.06;98747.06;4969055;28;20241;-63
2023/05/28 06:02:41;;;;;;;9.07;4.53;;;;;;;14.11;83.37;98745.03;4975305;28;20243;-63
2023/05/28 06:05:28;;;;;;;12.73;5.10;;;;;;;14.26;82.40;98742.53;4947511;28;20259;-63
2023/05/28 06:08:10;;;;;;;10.40;4.80;;;;;;;14.46;81.07;98756.03;4982457;28;20244;-63
2023/05/28 06:10:49;;;;;;;11.77;5.20;;;;;;;14.62;79.07;98752.47;4970539;28;20676;-63
2023/05/28 06:13:16;;;;;;;10.43;5.07;;;;;;;14.85;77.84;98755.13;4980274;28;20256;-64
2023/05/28 06:15:44;;;;;;;8.20;4.97;;;;;;;15.03;76.09;98754.84;4977163;28;20318;-63
2023/05/28 06:18:11;;;;;;;9.40;5.20;;;;;;;15.22;74.95;98765.06;4976254;28;20229;-63
2023/05/28 06:20:39;;;;;;;11.77;5.43;;;;;;;15.24;72.12;98755.19;4962343;28;20244;-63
2023/05/28 06:23:06;;;;;;;12.07;6.20;;;;;;;15.23;70.93;98759.63;4975802;28;20232;-63
2023/05/28 06:25:35;;;;;;;10.93;5.67;;;;;;;15.12;70.13;98760.84;4984508;28;20707;-63
2023/05/28 06:28:01;;;;;;;9.17;5.43;;;;;;;15.20;71.24;98767.88;4983587;28;20232;-63
2023/05/28 06:30:29;;;;;;;11.93;6.20;;;;;;;15.29;71.83;98763.34;4974818;28;20240;-63
2023/05/28 06:32:57;;;;;;;9.90;6.33;;;;;;;15.29;71.81;98764.19;4985306;28;20261;-63
2023/05/28 06:35:24;;;;;;;14.20;6.43;;;;;;;15.31;70.47;98761.38;4973016;28;20696;-63
2023/05/28 06:37:51;;;;;;;12.43;5.67;;;;;;;15.53;70.33;98764.94;4976618;28;20261;-63
2023/05/28 06:40:18;;;;;;;11.87;6.20;;;;;;;15.52;70.05;98762.50;4982201;28;20624;-63
2023/05/28 06:42:45;;;;;;;13.60;5.90;;;;;;;15.53;70.66;98770.19;4984585;28;20265;-63
2023/05/28 06:45:47;;;;;;;10.33;5.50;;;;;;;15.59;69.68;98763.41;4961530;28;20249;-63
2023/05/28 06:48:15;;;;;;;12.90;5.83;;;;;;;15.71;69.53;98769.03;4978508;28;20229;-64
2023/05/28 06:50:42;;;;;;;13.77;6.37;;;;;;;15.84;68.46;98769.22;4990195;28;20236;-63
2023/05/28 06:53:09;;;;;;;9.50;5.33;;;;;;;15.87;68.29;98775.97;4984739;28;20229;-63
2023/05/28 06:55:35;;;;;;;13.67;5.90;;;;;;;15.83;67.53;98774.69;4993031;28;20225;-64
2023/05/28 06:58:31;;;;;;;14.17;5.53;;;;;;;15.58;68.56;98785.44;4968346;28;20792;-63
2023/05/28 07:01:03;;;;;;;13.70;6.13;;;;;;;15.85;68.75;98777.94;4979100;28;20255;-63
2023/05/28 07:03:53;;;;;;;11.30;5.53;;;;;;;15.93;67.92;98775.22;4978981;28;20247;-63
2023/05/28 07:06:32;;;;;;;10.87;5.93;;;;;;;16.09;67.28;98777.69;4971489;28;20232;-63
2023/05/28 07:08:59;;;;;;;13.67;5.93;;;;;;;16.42;65.62;98784.38;4976353;28;20291;-63
2023/05/28 07:11:26;;;;;;;14.33;6.23;;;;;;;16.38;65.08;98778.66;4973797;28;20234;-63
2023/05/28 07:13:54;;;;;;;10.50;5.77;;;;;;;16.47;65.77;98779.34;4983831;28;20232;-63
2023/05/28 07:16:22;;;;;;;11.77;6.03;;;;;;;16.40;65.00;98782.91;4974801;28;20230;-63
2023/05/28 07:18:49;;;;;;;10.97;5.53;;;;;;;16.49;65.69;98784.44;4985491;28;20358;-63
2023/05/28 07:21:18;;;;;;;14.13;5.77;;;;;;;16.41;65.51;98777.47;4975150;28;20320;-63
2023/05/28 07:23:46;;;;;;;7.80;5.27;;;;;;;16.56;65.72;98782.69;4977159;28;20238;-63
2023/05/28 07:26:14;;;;;;;11.37;4.77;;;;;;;16.70;65.38;98790.75;4983110;28;20561;-63
2023/05/28 07:28:40;;;;;;;14.87;5.17;;;;;;;16.67;66.37;98789.28;4981309;28;20225;-63
2023/05/28 07:31:08;;;;;;;10.80;5.10;;;;;;;16.83;64.94;98786.41;4975619;28;20229;-63
2023/05/28 07:33:35;;;;;;;12.70;5.53;;;;;;;16.71;65.78;98785.28;4979518;28;20229;-63
2023/05/28 07:36:03;;;;;;;10.73;5.33;;;;;;;16.85;63.85;98788.06;4993212;28;20245;-63
2023/05/28 07:38:31;;;;;;;10.13;5.53;;;;;;;16.59;65.88;98784.13;4974878;28;20228;-63
2023/05/28 07:41:00;;;;;;;11.67;5.70;;;;;;;16.87;65.50;98792.16;4977659;28;20243;-63
2023/05/28 07:43:32;;;;;;;10.90;5.57;;;;;;;17.06;64.53;98796.00;4979598;28;20239;-63
2023/05/28 07:46:04;;;;;;;9.83;5.10;;;;;;;17.32;65.36;98797.25;4985049;28;20311;-63
2023/05/28 07:48:39;;;;;;;12.67;5.00;;;;;;;17.45;65.69;98785.16;4971890;28;20236;-63
2023/05/28 07:51:28;;;;;;;12.90;5.50;;;;;;;17.31;64.50;98785.06;4968343;28;20274;-63
2023/05/28 07:54:08;;;;;;;11.13;5.33;;;;;;;17.66;61.52;98795.66;4976729;28;20226;-63
2023/05/28 07:56:34;;;;;;;11.73;5.57;;;;;;;17.56;62.23;98788.09;4993772;28;20226;-63
2023/05/28 07:59:04;;;;;;;12.37;5.23;;;;;;;17.72;62.82;98796.72;4977960;28;20242;-63
2023/05/28 08:01:31;;;;;;;12.77;5.27;;;;;;;17.79;62.02;98791.47;4974636;28;20238;-63
2023/05/28 08:03:58;;;;;;;8.67;4.63;;;;;;;17.83;61.70;98785.63;4974242;28;20250;-63
2023/05/28 08:06:32;;;;;;;11.50;5.17;;;;;;;17.82;62.64;98799.84;4975316;28;20226;-63
2023/05/28 08:09:00;;;;;;;9.57;4.80;;;;;;;18.09;61.89;98791.28;4978664;28;20308;-65
2023/05/28 08:11:28;;;;;;;9.50;5.40;;;;;;;18.23;62.08;98792.13;4980722;28;20229;-63
2023/05/28 08:13:55;;;;;;;10.77;5.13;;;;;;;18.46;60.37;98793.66;4991925;28;20238;-63
2023/05/28 08:16:22;;;;;;;9.20;4.83;;;;;;;18.20;60.54;98785.44;4972283;28;20238;-63
2023/05/28 08:19:07;;;;;;;10.63;5.13;;;;;;;18.38;60.83;98790.16;4979762;28;20238;-63
2023/05/28 08:21:35;;;;;;;14.57;6.10;;;;;;;18.48;60.11;98783.69;4980818;28;20583;-63
2023/05/28 08:24:03;;;;;;;11.60;4.97;;;;;;;18.63;57.95;98787.00;4982142;28;20229;-63
2023/05/28 08:26:32;;;;;;;13.73;4.80;;;;;;;18.52;57.59;98780.47;4985586;28;20246;-63
2023/05/28 08:29:00;;;;;;;10.90;4.87;;;;;;;18.37;59.87;98775.31;4982770;28;20231;-63
2023/05/28 08:31:30;;;;;;;10.40;4.30;;;;;;;18.67;59.49;98782.94;4978032;28;20258;-63
2023/05/28 08:34:13;;;;;;;12.60;4.70;;;;;;;18.67;59.27;98772.38;4993388;28;20238;-63
2023/05/28 08:36:39;;;;;;;8.37;4.87;;;;;;;18.69;58.44;98769.50;4973966;28;20233;-63
2023/05/28 08:39:11;;;;;;;12.57;5.33;;;;;;;18.90;58.97;98771.19;4975642;28;20298;-63
2023/05/28 08:41:41;;;;;;;10.97;5.00;;;;;;;18.95;58.37;98773.22;4989835;28;20238;-63
2023/05/28 08:44:08;;;;;;;11.07;5.10;;;;;;;18.97;57.76;98766.75;4981183;28;20309;-63
2023/05/28 08:46:37;;;;;;;12.27;5.20;;;;;;;18.93;58.32;98760.22;4980532;28;20677;-63
2023/05/28 08:49:30;;;;;;;12.50;5.53;;;;;;;18.83;58.75;98757.16;4975668;28;20586;-63
2023/05/28 08:52:00;;;;;;;8.77;4.67;;;;;;;18.94;58.68;98761.84;4975785;28;20703;-63
2023/05/28 08:54:28;;;;;;;14.23;5.27;;;;;;;18.95;58.62;98752.91;4972431;28;20709;-63
2023/05/28 08:56:56;;;;;;;8.93;5.07;;;;;;;19.12;59.29;98750.69;4976451;28;20234;-63
2023/05/28 08:59:24;;;;;;;11.17;5.13;;;;;;;19.31;58.72;98751.69;4979876;28;20544;-63
2023/05/28 09:01:52;;;;;;;12.17;4.73;;;;;;;19.33;58.50;98743.56;4978066;28;20294;-63
2023/05/28 09:04:21;;;;;;;9.07;4.63;;;;;;;19.32;57.74;98744.56;4972107;28;20236;-63
2023/05/28 09:06:51;;;;;;;10.40;4.90;;;;;;;19.45;57.11;98749.03;4977852;28;20244;-63
2023/05/28 09:09:28;;;;;;;9.43;4.67;;;;;;;19.65;56.62;98750.84;4974591;28;20258;-63
2023/05/28 09:12:05;;;;;;;7.93;4.27;;;;;;;19.91;56.06;98747.31;4981292;28;20250;-63
2023/05/28 09:14:39;;;;;;;9.37;4.33;;;;;;;19.97;56.22;98743.03;4971699;28;20235;-63
2023/05/28 09:17:08;;;;;;;12.23;4.33;;;;;;;20.00;55.62;98743.44;4974449;28;20223;-63
2023/05/28 09:19:51;;;;;;;17.23;5.07;;;;;;;19.90;55.08;98741.22;4965170;28;20239;-63
2023/05/28 09:22:18;;;;;;;12.20;4.93;;;;;;;19.99;55.51;98733.06;4972610;28;20699;-63
2023/05/28 09:25:14;;;;;;;9.17;4.50;;;;;;;19.91;54.87;98734.09;4963909;28;20576;-63
2023/05/28 09:27:49;;;;;;;13.33;5.13;;;;;;;20.00;55.31;98737.31;4979628;28;20326;-64
2023/05/28 09:30:16;;;;;;;12.23;4.93;;;;;;;20.09;54.93;98728.13;4976037;28;20239;-63
2023/05/28 09:32:42;;;;;;;11.23;4.63;;;;;;;20.32;55.21;98724.13;4972954;28;20236;-63
2023/05/28 09:35:10;;;;;;;12.00;4.73;;;;;;;20.47;55.16;98722.00;4977001;28;20244;-63
2023/05/28 09:37:37;;;;;;;10.23;4.60;;;;;;;20.75;55.73;98722.63;4974885;28;20427;-63
2023/05/28 09:40:07;;;;;;;9.47;4.80;;;;;;;20.88;54.91;98716.47;4963473;28;20625;-63
2023/05/28 09:42:40;;;;;;;8.50;4.40;;;;;;;21.11;50.63;98720.38;4971033;28;20255;-63
2023/05/28 09:45:10;;;;;;;8.07;4.37;;;;;;;21.30;50.62;98718.56;4977467;28;20863;-63
2023/05/28 09:47:42;;;;;;;10.50;5.10;;;;;;;21.38;49.06;98716.41;4971609;28;20290;-63
2023/05/28 09:50:09;;;;;;;8.80;4.40;;;;;;;21.31;48.96;98712.22;4972639;28;20566;-63
2023/05/28 09:52:39;;;;;;;7.83;4.53;;;;;;;21.46;48.66;98712.69;4973848;28;20256;-63
2023/05/28 09:55:08;;;;;;;8.37;4.13;;;;;;;21.56;47.39;98714.81;4976819;28;20235;-63
2023/05/28 09:57:40;;;;;;;8.00;4.10;;;;;;;21.57;47.45;98719.09;4974178;28;20293;-63
2023/05/28 10:00:19;;;;;;;10.63;4.47;;;;;;;21.66;47.39;98717.81;4975858;28;20233;-63
2023/05/28 10:02:56;;;;;;;7.93;4.53;;;;;;;21.83;47.44;98711.91;4975373;28;20301;-63
2023/05/28 10:05:27;;;;;;;7.67;3.97;;;;;;;22.01;46.54;98710.28;4978861;28;20233;-63
2023/05/28 10:07:56;;;;;;;9.67;4.17;;;;;;;22.13;48.44;98708.47;4983235;28;20236;-63
2023/05/28 10:10:24;;;;;;;8.13;3.70;;;;;;;22.04;45.74;98712.47;4976653;28;20238;-63
2023/05/28 10:12:53;;;;;;;9.63;4.43;;;;;;;22.23;45.12;98711.41;4981302;28;20714;-63
2023/05/28 10:15:21;;;;;;;8.30;4.17;;;;;;;22.17;45.52;98709.66;4975629;28;20262;-63
2023/05/28 10:17:50;;;;;;;13.60;4.43;;;;;;;21.95;44.20;98707.47;4980768;28;20240;-63
2023/05/28 10:20:18;;;;;;;7.50;4.37;;;;;;;21.99;45.03;98707.81;4980499;28;20276;-63
2023/05/28 10:22:45;;;;;;;12.10;4.40;;;;;;;22.14;45.21;98714.59;4975091;28;20271;-63
2023/05/28 10:25:12;;;;;;;9.80;4.43;;;;;;;22.14;45.38;98706.63;4977821;28;20763;-63
2023/05/28 10:27:45;;;;;;;9.87;4.00;;;;;;;22.25;45.85;98714.66;4978591;28;20237;-63
2023/05/28 10:30:13;;;;;;;7.33;4.37;;;;;;;22.29;46.29;98717.66;4976238;28;20309;-63
2023/05/28 10:32:41;;;;;;;8.17;4.90;;;;;;;22.34;45.42;98712.47;4975327;28;20272;-63
2023/05/28 10:35:11;;;;;;;7.23;4.07;;;;;;;22.58;46.07;98712.59;4978048;28;20731;-63
2023/05/28 10:37:38;;;;;;;7.13;4.27;;;;;;;22.51;43.90;98712.69;4974893;28;20318;-63
2023/05/28 10:40:09;;;;;;;8.03;4.47;;;;;;;22.55;43.38;98710.38;4978667;28;20282;-64
2023/05/28 10:42:39;;;;;;;10.27;4.47;;;;;;;22.62;45.44;98707.63;4979493;28;20305;-64
2023/05/28 10:45:09;;;;;;;9.77;4.30;;;;;;;22.58;44.11;98712.59;4978939;28;20321;-64
2023/05/28 10:47:36;;;;;;;8.27;4.50;;;;;;;22.78;44.26;98706.97;4974554;28;20226;-64
2023/05/28 10:50:13;;;;;;;9.10;4.87;;;;;;;22.77;44.12;98709.88;4981645;28;20243;-64
2023/05/28 10:52:40;;;;;;;10.40;4.53;;;;;;;23.02;43.33;98703.50;4974756;28;20235;-64
2023/05/28 10:55:09;;;;;;;9.47;4.40;;;;;;;23.24;43.74;98709.13;4977284;28;20223;-64
2023/05/28 10:57:43;;;;;;;11.90;5.10;;;;;;;23.28;43.09;98697.75;4975771;28;20600;-64
2023/05/28 11:00:13;;;;;;;10.23;4.50;;;;;;;23.03;43.19;98705.97;4978490;28;20298;-64
2023/05/28 11:02:40;;;;;;;10.10;4.30;;;;;;;23.06;44.08;98697.50;4978624;28;20231;-64
2023/05/28 11:05:07;;;;;;;8.27;4.27;;;;;;;23.07;43.14;98688.47;4979564;28;20244;-64
2023/05/28 11:07:36;;;;;;;7.33;4.37;;;;;;;23.30;43.20;98689.56;4975905;28;20225;-64
2023/05/28 11:10:06;;;;;;;10.57;4.77;;;;;;;23.32;42.58;98682.13;4979093;28;20692;-64
2023/05/28 11:12:35;;;;;;;7.67;4.17;;;;;;;23.30;42.72;98686.88;4975109;28;20299;-64
2023/05/28 11:15:02;;;;;;;8.00;4.20;;;;;;;23.37;41.66;98682.22;4981345;28;20230;-64
2023/05/28 11:17:28;;;;;;;9.83;4.83;;;;;;;23.51;40.92;98671.31;4975977;28;20296;-64
2023/05/28 11:19:55;;;;;;;11.53;4.20;;;;;;;23.55;42.21;98677.81;4979844;28;20944;-64
2023/05/28 11:22:22;;;;;;;8.57;4.30;;;;;;;23.40;41.92;98670.31;4975735;28;20251;-64
2023/05/28 11:24:59;;;;;;;8.93;4.43;;;;;;;23.42;41.99;98673.56;4978771;28;20239;-64
2023/05/28 11:27:27;;;;;;;8.03;4.47;;;;;;;23.61;40.78;98668.06;4974692;28;20322;-64
2023/05/28 11:29:55;;;;;;;7.53;3.67;;;;;;;23.69;41.44;98671.16;4980425;28;20238;-64
2023/05/28 11:32:22;;;;;;;7.70;4.13;;;;;;;23.85;40.46;98661.59;4976669;28;20242;-64
2023/05/28 11:34:50;;;;;;;8.40;4.10;;;;;;;23.92;40.21;98664.16;4976494;28;20232;-64
2023/05/28 11:37:17;;;;;;;10.93;4.13;;;;;;;24.05;40.05;98662.28;4976977;28;20226;-64
2023/05/28 11:39:50;;;;;;;9.43;4.00;;;;;;;24.15;39.47;98651.81;4976958;28;20561;-64
2023/05/28 11:42:20;;;;;;;7.43;4.27;;;;;;;24.24;39.60;98647.69;4977842;28;20239;-64
2023/05/28 11:44:46;;;;;;;7.00;4.20;;;;;;;24.38;39.58;98658.06;4974503;28;20236;-64